Time;durP1;ratioP1;P1;durP2;ratioP2;P2;SDS_P1;SDS_P2;PMS_P1;PMS_P2;Temp;Humidity;BMP_temperature;BMP_pressure;BME280_temperature;BME280_humidity;BME280_pressure;Samples;Min_cycle;Max_cycle;Signal;HPM_P1;HPM_P2
2022/05/20 00:00:47;;;;;;;3.45;1.85;;;13.90;72.00;;;;;;5073093;28;20021;-64
2022/05/20 00:03:13;;;;;;;1.70;1.20;;;13.90;72.80;;;;;;5073123;28;20021;-64
2022/05/20 00:05:38;;;;;;;2.15;1.67;;;13.80;74.40;;;;;;5076912;28;20112;-64
2022/05/20 00:08:04;;;;;;;1.45;1.30;;;13.80;74.00;;;;;;5076865;28;20047;-64
2022/05/20 00:10:31;;;;;;;1.30;1.20;;;13.70;76.00;;;;;;5077009;28;20103;-64
2022/05/20 00:12:58;;;;;;;1.95;1.67;;;13.70;76.60;;;;;;5076830;28;20024;-64
2022/05/20 00:15:26;;;;;;;1.40;1.23;;;13.60;75.50;;;;;;5076959;28;20021;-64
2022/05/20 00:17:52;;;;;;;2.00;1.42;;;13.60;77.50;;;;;;5077196;28;20378;-64
2022/05/20 00:20:20;;;;;;;2.33;1.42;;;13.50;76.60;;;;;;5076776;28;20467;-64
2022/05/20 00:22:45;;;;;;;1.85;1.30;;;13.50;76.30;;;;;;5076490;28;20083;-65
2022/05/20 00:27:58;;;;;;;1.33;1.23;;;13.40;77.90;;;;;;5077046;28;20108;-64
2022/05/20 00:30:24;;;;;;;1.30;1.20;;;13.50;77.70;;;;;;5076673;28;20103;-64
2022/05/20 00:32:50;;;;;;;2.53;1.23;;;13.40;78.30;;;;;;5076577;28;20031;-64
2022/05/20 00:35:16;;;;;;;2.60;0.90;;;13.40;77.30;;;;;;5076601;28;20487;-64
2022/05/20 00:37:42;;;;;;;1.80;1.15;;;13.40;78.50;;;;;;5076262;28;20063;-64
2022/05/20 00:40:10;;;;;;;1.30;1.20;;;13.40;79.00;;;;;;5076458;28;20103;-64
2022/05/20 00:42:36;;;;;;;1.10;1.00;;;13.30;78.60;;;;;;5058330;28;20399;-64
2022/05/20 00:45:04;;;;;;;1.25;0.98;;;13.30;79.50;;;;;;5076311;28;20028;-64
2022/05/20 00:47:29;;;;;;;1.23;0.90;;;13.20;82.00;;;;;;5076254;28;20040;-64
2022/05/20 00:49:58;;;;;;;1.70;1.27;;;13.20;83.50;;;;;;5076125;28;20471;-64
2022/05/20 00:52:28;;;;;;;1.65;1.13;;;13.10;83.90;;;;;;5076047;28;20385;-64
2022/05/20 00:54:58;;;;;;;1.95;1.15;;;13.10;84.00;;;;;;5076038;28;20020;-64
2022/05/20 00:57:27;;;;;;;1.50;1.15;;;13.10;83.00;;;;;;5076483;28;20141;-64
2022/05/20 00:59:59;;;;;;;1.30;1.00;;;13.10;82.00;;;;;;5076156;28;20036;-64
2022/05/20 01:02:27;;;;;;;1.77;1.35;;;13.00;81.80;;;;;;5075928;28;20166;-64
2022/05/20 01:04:56;;;;;;;1.58;1.20;;;13.00;83.20;;;;;;5076079;28;20033;-64
2022/05/20 01:07:23;;;;;;;1.58;1.25;;;12.80;83.90;;;;;;5075829;28;20021;-64
2022/05/20 01:09:49;;;;;;;1.27;1.08;;;12.80;85.50;;;;;;5075805;28;20066;-64
2022/05/20 01:12:15;;;;;;;1.25;1.02;;;12.80;86.10;;;;;;5075916;28;20024;-64
2022/05/20 01:14:41;;;;;;;1.83;1.25;;;12.80;85.20;;;;;;5075286;28;20048;-64
2022/05/20 01:17:08;;;;;;;1.75;1.20;;;12.70;85.90;;;;;;5075693;28;20021;-64
2022/05/20 01:19:42;;;;;;;1.88;1.33;;;12.70;86.30;;;;;;5075792;28;20029;-64
2022/05/20 01:22:11;;;;;;;1.77;1.30;;;12.70;86.10;;;;;;5075492;28;20024;-64
2022/05/20 01:24:37;;;;;;;1.40;1.10;;;12.70;86.90;;;;;;5075582;28;20491;-64
2022/05/20 01:27:03;;;;;;;2.15;1.02;;;12.70;88.20;;;;;;5075603;28;20016;-64
2022/05/20 01:29:29;;;;;;;1.00;0.90;;;12.60;88.40;;;;;;5076024;28;20413;-64
2022/05/20 01:31:55;;;;;;;1.20;0.90;;;12.60;90.30;;;;;;5075441;28;20028;-64
2022/05/20 01:34:21;;;;;;;2.17;1.40;;;12.50;89.50;;;;;;5075499;28;20112;-64
2022/05/20 01:36:47;;;;;;;0.95;0.88;;;12.50;89.20;;;;;;5075253;28;20017;-64
2022/05/20 01:39:13;;;;;;;1.92;1.10;;;12.40;90.50;;;;;;5075342;28;20450;-64
2022/05/20 01:41:46;;;;;;;2.15;1.13;;;12.40;90.40;;;;;;5075418;28;20024;-64
2022/05/20 01:44:15;;;;;;;1.30;1.00;;;12.30;90.60;;;;;;5075307;28;20033;-64
2022/05/20 01:46:43;;;;;;;1.23;1.00;;;12.30;91.00;;;;;;5075187;28;20070;-64
2022/05/20 01:49:18;;;;;;;1.73;1.13;;;12.30;90.70;;;;;;5075093;28;20020;-64
2022/05/20 01:52:03;;;;;;;1.73;1.08;;;12.20;90.50;;;;;;5073896;28;20387;-64
2022/05/20 01:54:52;;;;;;;1.42;1.00;;;12.10;91.20;;;;;;5075055;28;20036;-64
2022/05/20 01:57:43;;;;;;;1.33;0.88;;;12.10;92.10;;;;;;5074924;28;20025;-64
2022/05/20 02:00:18;;;;;;;1.00;0.90;;;12.10;92.40;;;;;;5074960;28;20094;-64
2022/05/20 02:02:51;;;;;;;2.05;0.80;;;12.10;92.10;;;;;;5074883;28;20051;-64
2022/05/20 02:05:27;;;;;;;1.40;0.80;;;12.00;92.50;;;;;;5074671;28;20095;-64
2022/05/20 02:08:01;;;;;;;0.90;0.80;;;12.00;92.70;;;;;;5074937;28;20387;-64
2022/05/20 02:10:40;;;;;;;1.60;0.90;;;12.00;92.30;;;;;;5074796;28;20025;-64
2022/05/20 02:13:10;;;;;;;0.95;0.90;;;11.90;92.20;;;;;;5074564;28;20074;-64
2022/05/20 02:15:44;;;;;;;0.88;0.82;;;11.90;91.80;;;;;;5074602;28;20044;-64
2022/05/20 02:18:15;;;;;;;0.90;0.80;;;11.90;91.70;;;;;;5074349;28;20446;-64
2022/05/20 02:20:46;;;;;;;1.00;0.88;;;11.90;92.20;;;;;;5074538;28;20077;-64
2022/05/20 02:23:19;;;;;;;1.52;1.10;;;11.80;93.00;;;;;;5074416;28;20424;-64
2022/05/20 02:25:51;;;;;;;1.23;0.73;;;11.80;92.20;;;;;;5074207;28;20028;-64
2022/05/20 02:28:33;;;;;;;1.05;0.90;;;11.80;92.60;;;;;;5073941;28;20028;-65
2022/05/20 02:31:02;;;;;;;1.33;0.90;;;11.80;92.70;;;;;;5074229;28;20017;-64
2022/05/20 02:33:28;;;;;;;1.00;0.80;;;11.70;92.90;;;;;;5056397;28;20395;-64
2022/05/20 02:36:24;;;;;;;1.08;0.88;;;11.70;93.20;;;;;;5074262;28;20025;-64
2022/05/20 02:38:50;;;;;;;1.20;0.93;;;11.70;93.40;;;;;;5057651;28;20036;-64
2022/05/20 02:41:16;;;;;;;1.13;0.82;;;11.60;93.40;;;;;;5074041;28;20069;-64
2022/05/20 02:43:43;;;;;;;0.60;0.60;;;11.60;93.50;;;;;;5074103;28;20146;-64
2022/05/20 02:46:11;;;;;;;0.80;0.65;;;11.60;94.80;;;;;;5074057;28;20025;-64
2022/05/20 02:48:37;;;;;;;1.15;1.00;;;11.50;94.50;;;;;;5073756;28;20028;-63
2022/05/20 02:51:03;;;;;;;1.70;0.80;;;11.50;94.90;;;;;;5073914;28;20029;-64
2022/05/20 02:53:29;;;;;;;1.58;0.90;;;11.50;95.50;;;;;;5073918;28;20368;-64
2022/05/20 02:55:55;;;;;;;0.98;0.80;;;11.50;95.50;;;;;;5073867;28;20036;-64
2022/05/20 03:04:12;;;;;;;1.13;0.90;;;11.40;95.40;;;;;;5073911;28;20496;-64
2022/05/20 03:06:41;;;;;;;0.90;0.80;;;11.40;94.90;;;;;;5073658;28;20074;-64
2022/05/20 03:09:09;;;;;;;1.20;1.10;;;11.30;95.50;;;;;;5073845;28;20021;-64
2022/05/20 03:11:36;;;;;;;1.08;0.90;;;11.20;95.10;;;;;;5073616;28;20021;-64
2022/05/20 03:14:03;;;;;;;1.33;1.10;;;11.20;95.30;;;;;;5073418;28;20048;-64
2022/05/20 03:16:32;;;;;;;1.38;0.85;;;11.10;95.20;;;;;;5073473;28;20020;-64
2022/05/20 03:18:58;;;;;;;2.13;1.10;;;11.10;94.90;;;;;;5073541;28;20100;-63
2022/05/20 03:21:24;;;;;;;0.98;0.93;;;11.20;95.30;;;;;;5073451;28;20573;-63
2022/05/20 03:23:51;;;;;;;1.40;0.90;;;11.10;95.20;;;;;;5073413;28;20118;-64
2022/05/20 03:26:18;;;;;;;1.58;1.10;;;11.10;95.20;;;;;;5073511;28;20027;-63
2022/05/20 03:28:44;;;;;;;2.33;1.10;;;11.20;95.20;;;;;;5073269;28;20497;-64
2022/05/20 03:31:11;;;;;;;1.58;1.15;;;11.10;95.00;;;;;;5073083;28;20502;-64
2022/05/20 03:33:38;;;;;;;1.00;0.70;;;11.10;95.20;;;;;;5073315;28;20068;-64
2022/05/20 03:36:05;;;;;;;1.65;0.90;;;11.20;95.50;;;;;;5073242;28;20017;-64
2022/05/20 03:38:31;;;;;;;0.88;0.80;;;11.20;95.50;;;;;;5073129;28;20017;-64
2022/05/20 03:40:56;;;;;;;1.23;0.77;;;11.20;95.40;;;;;;5073240;28;20027;-64
2022/05/20 03:43:23;;;;;;;0.95;0.60;;;11.20;95.50;;;;;;5073203;28;20031;-64
2022/05/20 03:45:51;;;;;;;1.17;0.80;;;11.20;96.20;;;;;;5073241;28;20364;-64
2022/05/20 03:48:17;;;;;;;1.20;0.70;;;11.20;96.50;;;;;;5073193;28;20024;-63
2022/05/20 03:50:43;;;;;;;1.83;0.98;;;11.20;96.20;;;;;;5073253;28;20031;-64
2022/05/20 03:53:09;;;;;;;2.83;1.00;;;11.20;96.80;;;;;;5072975;28;20039;-63
2022/05/20 03:55:35;;;;;;;1.30;1.08;;;11.20;97.50;;;;;;5073404;28;20021;-63
2022/05/20 03:58:00;;;;;;;1.08;0.90;;;11.10;98.10;;;;;;5072916;28;20049;-63
2022/05/20 04:00:26;;;;;;;0.80;0.73;;;11.10;98.80;;;;;;5072851;28;20028;-63
2022/05/20 04:02:52;;;;;;;1.83;0.90;;;11.10;98.10;;;;;;5073040;28;20024;-64
2022/05/20 04:05:18;;;;;;;1.25;1.13;;;11.20;97.70;;;;;;5073022;28;20028;-65
2022/05/20 04:07:43;;;;;;;1.50;1.00;;;11.30;97.70;;;;;;5072995;28;20581;-64
2022/05/20 04:10:10;;;;;;;4.28;1.55;;;11.30;98.00;;;;;;5073114;28;20025;-64
2022/05/20 04:12:41;;;;;;;2.33;1.42;;;11.30;97.70;;;;;;5073002;28;20029;-64
2022/05/20 04:15:10;;;;;;;2.10;1.40;;;11.30;98.40;;;;;;5072537;28;20050;-64
2022/05/20 04:17:36;;;;;;;1.88;1.42;;;11.20;98.70;;;;;;5072876;28;20024;-64
2022/05/20 04:20:04;;;;;;;3.33;1.55;;;11.10;99.90;;;;;;5072875;28;20066;-64
2022/05/20 04:22:37;;;;;;;1.80;1.38;;;11.10;99.90;;;;;;5072614;28;20020;-64
2022/05/20 04:25:05;;;;;;;2.92;1.50;;;11.20;99.90;;;;;;5072907;28;20032;-64
2022/05/20 04:27:30;;;;;;;1.60;1.33;;;11.20;99.90;;;;;;5072816;28;20024;-64
2022/05/20 04:29:57;;;;;;;3.65;1.40;;;11.20;99.80;;;;;;5072496;28;20021;-64
2022/05/20 04:32:23;;;;;;;2.47;1.60;;;11.30;99.90;;;;;;5072846;28;20475;-64
2022/05/20 04:34:49;;;;;;;2.90;1.50;;;11.30;99.90;;;;;;5072696;28;20028;-64
2022/05/20 04:37:15;;;;;;;2.67;1.35;;;11.10;99.90;;;;;;5072643;28;20436;-64
2022/05/20 04:39:41;;;;;;;1.73;1.33;;;11.00;99.90;;;;;;5072754;28;20095;-64
2022/05/20 04:47:40;;;;;;;2.33;1.27;;;11.00;99.90;;;;;;5072516;28;20085;-64
2022/05/20 04:50:07;;;;;;;1.95;1.60;;;11.10;99.90;;;;;;5073812;28;20028;-64
2022/05/20 04:52:33;;;;;;;2.47;1.60;;;11.10;99.90;;;;;;5076293;28;20031;-64
2022/05/20 04:54:59;;;;;;;2.35;1.80;;;11.00;99.90;;;;;;5075968;28;20029;-64
2022/05/20 04:57:43;;;;;;;3.95;1.88;;;10.90;99.90;;;;;;5076131;28;20455;-64
2022/05/20 05:00:20;;;;;;;5.38;1.80;;;10.80;99.90;;;;;;5034706;28;20044;-68
2022/05/20 05:02:47;;;;;;;3.25;2.35;;;10.90;99.90;;;;;;5034010;28;20033;-66
2022/05/20 05:05:17;;;;;;;5.22;2.15;;;11.00;99.90;;;;;;5031085;28;20045;-66
2022/05/20 05:07:45;;;;;;;2.55;1.73;;;11.10;99.90;;;;;;5032055;28;20029;-66
2022/05/20 05:10:13;;;;;;;3.78;2.03;;;11.10;99.90;;;;;;5033187;28;20029;-66
2022/05/20 05:12:39;;;;;;;3.28;1.88;;;11.20;99.90;;;;;;5034971;28;20357;-66
2022/05/20 05:15:05;;;;;;;2.25;1.30;;;11.30;99.90;;;;;;5035665;28;20029;-66
2022/05/20 05:20:21;;;;;;;2.22;1.67;;;11.80;99.90;;;;;;5022880;28;20080;-67
2022/05/20 05:22:49;;;;;;;2.42;1.42;;;12.10;99.90;;;;;;5029963;28;20048;-66
2022/05/20 05:25:15;;;;;;;1.63;1.45;;;12.20;99.90;;;;;;5034056;28;20026;-67
2022/05/20 05:27:41;;;;;;;3.60;1.77;;;12.40;99.90;;;;;;5032373;28;20080;-66
2022/05/20 05:30:10;;;;;;;3.40;1.58;;;12.40;99.90;;;;;;5014194;28;20402;-66
2022/05/20 05:32:35;;;;;;;3.15;1.77;;;12.30;99.90;;;;;;5011733;28;20468;-66
2022/05/20 05:35:07;;;;;;;2.10;1.52;;;12.30;99.90;;;;;;5015475;28;20136;-67
2022/05/20 05:37:41;;;;;;;2.55;1.85;;;12.40;99.90;;;;;;5023185;28;20033;-66
2022/05/20 05:40:10;;;;;;;2.63;1.90;;;12.50;99.90;;;;;;5022503;28;20021;-67
2022/05/20 05:42:36;;;;;;;3.10;1.88;;;12.50;99.90;;;;;;5021931;28;20463;-66
2022/05/20 05:45:04;;;;;;;2.00;1.42;;;12.70;99.90;;;;;;5022208;28;20124;-66
2022/05/20 05:47:30;;;;;;;1.65;1.50;;;12.70;99.90;;;;;;5023519;28;20072;-65
2022/05/20 05:49:56;;;;;;;3.15;1.73;;;12.90;99.90;;;;;;5033992;28;20428;-66
2022/05/20 05:52:22;;;;;;;2.35;1.70;;;13.00;99.90;;;;;;5032727;28;20021;-66
2022/05/20 05:54:48;;;;;;;2.75;1.92;;;13.10;99.90;;;;;;5033252;28;20029;-66
2022/05/20 05:57:14;;;;;;;2.63;1.65;;;13.20;99.90;;;;;;5033543;28;20033;-67
2022/05/20 05:59:40;;;;;;;2.35;1.65;;;13.50;99.90;;;;;;5069837;28;20049;-67
2022/05/20 06:02:08;;;;;;;3.85;2.08;;;13.60;99.90;;;;;;5071257;28;20387;-67
2022/05/20 06:04:35;;;;;;;3.38;2.13;;;13.80;99.90;;;;;;5046991;28;20079;-67
2022/05/20 06:07:01;;;;;;;4.85;1.70;;;13.90;99.90;;;;;;5047961;28;20055;-67
2022/05/20 06:09:27;;;;;;;1.63;1.52;;;14.10;99.40;;;;;;5053610;28;20017;-67
2022/05/20 06:11:53;;;;;;;3.28;1.92;;;14.40;99.80;;;;;;5053974;28;20032;-67
2022/05/20 06:14:19;;;;;;;6.07;2.00;;;14.60;99.40;;;;;;5053113;28;20488;-67
2022/05/20 06:16:45;;;;;;;3.80;2.25;;;14.80;98.50;;;;;;5051631;28;20032;-67
2022/05/20 06:19:12;;;;;;;4.15;2.35;;;15.00;98.00;;;;;;5052105;28;20540;-68
2022/05/20 06:21:40;;;;;;;3.47;1.92;;;15.20;96.80;;;;;;5052380;28;20049;-67
2022/05/20 06:24:12;;;;;;;4.13;1.63;;;15.40;95.30;;;;;;5052129;28;20047;-67
2022/05/20 06:26:44;;;;;;;2.28;1.70;;;15.70;95.40;;;;;;5040884;28;20020;-68
2022/05/20 06:29:10;;;;;;;7.50;3.05;;;15.80;95.30;;;;;;5051445;28;20757;-66
2022/05/20 06:31:36;;;;;;;4.45;2.42;;;16.00;95.90;;;;;;5058745;28;20029;-64
2022/05/20 06:34:02;;;;;;;4.75;2.35;;;16.20;94.80;;;;;;5056733;28;20040;-65
2022/05/20 06:41:58;;;;;;;3.33;2.20;;;16.80;87.40;;;;;;5053240;28;20087;-65
2022/05/20 06:44:25;;;;;;;22.27;6.90;;;17.00;86.60;;;;;;5067806;28;20029;-65
2022/05/20 06:46:51;;;;;;;4.30;2.70;;;17.20;89.90;;;;;;5072119;28;20505;-65
2022/05/20 06:49:16;;;;;;;3.97;2.13;;;17.30;84.70;;;;;;5043251;28;20032;-65
2022/05/20 06:51:42;;;;;;;13.93;4.75;;;17.50;83.90;;;;;;5062982;28;20024;-63
2022/05/20 06:54:11;;;;;;;88.85;18.95;;;17.70;84.60;;;;;;5044442;28;20041;-60
2022/05/20 06:56:44;;;;;;;8.68;3.97;;;17.90;86.90;;;;;;5048651;28;20036;-64
2022/05/20 06:59:11;;;;;;;11.18;3.47;;;18.10;79.30;;;;;;5039374;28;20042;-64
2022/05/20 07:01:39;;;;;;;5.20;3.00;;;18.20;83.00;;;;;;5041653;28;20059;-64
2022/05/20 07:04:06;;;;;;;5.35;2.65;;;18.40;80.00;;;;;;5039120;28;20053;-64
2022/05/20 07:06:34;;;;;;;4.68;2.30;;;18.60;76.60;;;;;;5038978;28;20067;-64
2022/05/20 07:09:01;;;;;;;5.03;2.20;;;18.70;74.50;;;;;;5041331;28;20074;-66
2022/05/20 07:11:27;;;;;;;6.35;1.92;;;18.70;72.20;;;;;;5047415;28;20032;-63
2022/05/20 07:13:55;;;;;;;5.95;2.63;;;18.90;78.60;;;;;;5038693;28;20039;-62
2022/05/20 07:16:29;;;;;;;2.38;1.95;;;19.20;70.30;;;;;;5041687;28;20128;-62
2022/05/20 07:18:55;;;;;;;2.63;1.98;;;20.40;71.90;;;;;;5035171;28;20486;-60
2022/05/20 07:21:21;;;;;;;2.50;1.95;;;23.50;67.50;;;;;;5041132;28;20120;-62
2022/05/20 07:23:47;;;;;;;5.63;2.28;;;26.40;56.70;;;;;;5035438;28;20025;-63
2022/05/20 07:26:16;;;;;;;5.60;2.67;;;28.60;49.30;;;;;;5037008;28;20033;-60
2022/05/20 07:28:42;;;;;;;3.45;1.73;;;30.40;46.30;;;;;;5040877;28;20025;-61
2022/05/20 07:31:07;;;;;;;2.75;2.03;;;31.40;42.80;;;;;;5042289;28;20024;-61
2022/05/20 07:33:33;;;;;;;1.85;1.63;;;32.30;40.40;;;;;;5042978;28;20021;-60
2022/05/20 07:35:59;;;;;;;2.72;1.67;;;33.20;39.50;;;;;;5044767;28;20021;-62
2022/05/20 07:38:25;;;;;;;2.47;1.42;;;34.00;36.70;;;;;;5047478;28;20692;-61
2022/05/20 07:40:55;;;;;;;1.50;1.27;;;34.50;34.80;;;;;;5042758;28;20020;-62
2022/05/20 07:43:22;;;;;;;2.25;1.20;;;35.00;34.70;;;;;;5038529;28;20460;-59
2022/05/20 07:45:48;;;;;;;2.60;1.30;;;35.70;33.70;;;;;;5039758;28;20021;-61
2022/05/20 07:48:14;;;;;;;2.47;1.42;;;35.70;32.70;;;;;;5045105;28;20119;-65
2022/05/20 07:50:46;;;;;;;1.73;1.10;;;35.60;33.40;;;;;;5043107;28;20025;-61
2022/05/20 07:53:21;;;;;;;2.15;1.30;;;36.00;32.30;;;;;;5064532;28;20724;-61
2022/05/20 07:55:53;;;;;;;1.83;1.35;;;36.40;32.00;;;;;;5058853;28;20024;-60
2022/05/20 07:58:22;;;;;;;3.42;1.33;;;36.40;31.30;;;;;;5073689;28;20457;-60
2022/05/20 08:00:48;;;;;;;2.08;1.40;;;36.40;31.70;;;;;;5083253;28;20116;-63
2022/05/20 08:04:52;;;;;;;2.00;1.30;;;36.50;31.70;;;;;;5078573;28;20526;-63
2022/05/20 08:06:03;;;;;;;1.83;1.42;;;36.50;31.20;;;;;;5047312;28;20028;-63
2022/05/20 08:08:30;;;;;;;5.13;1.80;;;36.50;30.10;;;;;;5049461;28;20075;-61
2022/05/20 08:10:57;;;;;;;5.57;2.50;;;36.20;29.20;;;;;;5030877;28;20029;-65
2022/05/20 08:13:23;;;;;;;2.25;1.60;;;35.00;30.20;;;;;;5061553;28;20364;-64
2022/05/20 08:15:49;;;;;;;1.58;1.48;;;34.70;31.70;;;;;;5071356;28;20066;-62
2022/05/20 08:18:17;;;;;;;2.47;1.42;;;35.20;33.30;;;;;;5071929;28;20203;-61
2022/05/20 08:20:44;;;;;;;2.22;1.80;;;35.60;32.40;;;;;;5091442;28;20031;-64
2022/05/20 08:23:10;;;;;;;1.58;1.48;;;35.90;31.60;;;;;;5086178;28;20371;-59
2022/05/20 08:25:36;;;;;;;2.42;1.33;;;36.30;31.70;;;;;;5055112;28;20078;-60
2022/05/20 08:28:04;;;;;;;3.15;1.60;;;36.70;30.10;;;;;;5072889;28;20574;-60
2022/05/20 08:30:29;;;;;;;1.52;1.42;;;36.90;32.20;;;;;;5075087;28;20051;-63
2022/05/20 08:32:55;;;;;;;1.80;1.45;;;36.60;30.80;;;;;;5071852;28;20070;-59
2022/05/20 08:35:21;;;;;;;1.50;1.10;;;36.70;30.60;;;;;;5070535;28;20055;-60
2022/05/20 08:37:48;;;;;;;2.38;1.60;;;36.80;32.20;;;;;;5072556;28;20063;-60
2022/05/20 08:40:21;;;;;;;2.47;1.80;;;36.90;31.10;;;;;;5070172;28;20025;-62
2022/05/20 08:42:47;;;;;;;1.88;1.42;;;36.70;32.50;;;;;;5070930;28;20102;-64
2022/05/20 08:45:15;;;;;;;1.80;1.60;;;36.20;31.40;;;;;;5073349;28;20033;-63
2022/05/20 08:47:44;;;;;;;1.63;1.45;;;36.10;31.90;;;;;;5073522;28;20071;-63
2022/05/20 08:50:15;;;;;;;3.25;1.50;;;36.40;31.90;;;;;;5065110;28;20156;-69
2022/05/20 08:52:42;;;;;;;1.83;1.40;;;36.60;31.60;;;;;;5067995;28;20025;-61
2022/05/20 08:55:10;;;;;;;1.90;1.45;;;36.60;30.70;;;;;;5065735;28;20112;-61
2022/05/20 08:57:38;;;;;;;2.25;1.30;;;36.40;30.20;;;;;;5068761;28;20032;-62
2022/05/20 09:00:09;;;;;;;1.40;1.30;;;36.40;32.20;;;;;;5070867;28;20206;-61
2022/05/20 09:02:35;;;;;;;1.23;1.13;;;36.50;31.10;;;;;;5070813;28;20467;-63
2022/05/20 09:05:22;;;;;;;2.85;1.58;;;36.80;30.70;;;;;;5069707;28;20051;-62
2022/05/20 09:08:00;;;;;;;1.67;1.58;;;36.80;32.40;;;;;;5069460;28;20146;-61
2022/05/20 09:10:37;;;;;;;3.08;1.65;;;37.10;31.10;;;;;;5067805;28;20051;-61
2022/05/20 09:13:07;;;;;;;1.50;1.40;;;37.30;29.90;;;;;;5062017;28;20076;-59
2022/05/20 09:15:46;;;;;;;1.95;1.38;;;37.40;30.40;;;;;;5049481;28;20040;-59
2022/05/20 09:18:39;;;;;;;3.88;1.67;;;37.30;31.20;;;;;;5056228;28;20020;-61
2022/05/20 09:21:06;;;;;;;4.07;2.05;;;37.00;30.00;;;;;;5031054;28;20111;-60
2022/05/20 09:23:32;;;;;;;4.00;1.80;;;36.40;30.00;;;;;;5059899;28;20024;-62
2022/05/20 09:26:11;;;;;;;2.22;1.88;;;36.70;30.60;;;;;;5062598;28;20067;-60
2022/05/20 09:28:39;;;;;;;3.67;2.30;;;37.00;29.00;;;;;;5070552;28;20475;-62
2022/05/20 09:31:37;;;;;;;4.88;2.30;;;37.20;30.70;;;;;;5071801;28;20344;-63
2022/05/20 09:34:27;;;;;;;4.13;2.30;;;37.40;28.90;;;;;;5056132;28;20065;-60
2022/05/20 09:37:00;;;;;;;3.53;2.20;;;37.40;29.10;;;;;;5066794;28;20698;-65
2022/05/20 09:39:31;;;;;;;4.20;2.25;;;37.50;29.30;;;;;;5055602;28;20052;-59
2022/05/20 09:42:04;;;;;;;3.67;2.30;;;37.60;28.50;;;;;;5065570;28;20043;-62
2022/05/20 09:44:39;;;;;;;3.97;2.22;;;37.50;28.80;;;;;;5068038;28;20058;-65
2022/05/20 09:47:24;;;;;;;5.47;2.55;;;37.60;28.30;;;;;;5059060;28;20017;-69
2022/05/20 09:50:24;;;;;;;4.97;2.20;;;38.00;27.60;;;;;;5061833;28;20036;-64
2022/05/20 09:53:14;;;;;;;4.50;2.10;;;38.00;26.60;;;;;;5052352;28;20091;-61
2022/05/20 09:55:57;;;;;;;2.63;1.50;;;37.80;27.40;;;;;;5064118;28;20410;-62
2022/05/20 09:58:31;;;;;;;3.38;1.77;;;37.50;28.10;;;;;;5061068;28;20041;-60
2022/05/20 10:01:02;;;;;;;3.95;2.15;;;37.60;28.20;;;;;;5056325;28;20494;-61
2022/05/20 10:03:36;;;;;;;3.58;2.30;;;37.70;26.20;;;;;;5063525;28;20104;-60
2022/05/20 10:06:14;;;;;;;4.70;2.00;;;37.80;25.50;;;;;;5046235;28;20033;-62
2022/05/20 10:09:04;;;;;;;3.63;1.48;;;37.20;26.60;;;;;;5066071;28;20043;-63
2022/05/20 10:11:57;;;;;;;3.25;1.67;;;36.00;25.10;;;;;;5065842;28;20541;-61
2022/05/20 10:14:42;;;;;;;2.15;1.40;;;36.40;26.30;;;;;;5063678;28;20074;-61
2022/05/20 10:17:23;;;;;;;2.55;1.67;;;36.60;25.70;;;;;;5060409;28;20020;-62
2022/05/20 10:20:04;;;;;;;2.88;1.70;;;36.40;27.10;;;;;;5043451;28;20051;-60
2022/05/20 10:22:55;;;;;;;2.78;1.55;;;37.00;26.20;;;;;;5070418;28;20098;-61
2022/05/20 10:25:24;;;;;;;4.47;2.22;;;36.70;25.30;;;;;;5063732;28;20479;-61
2022/05/20 10:34:16;;;;;;;3.38;1.70;;;36.10;25.30;;;;;;5050773;28;20035;-61
2022/05/20 10:36:53;;;;;;;2.13;1.48;;;36.20;26.50;;;;;;5033735;28;20032;-62
2022/05/20 10:39:22;;;;;;;5.28;1.60;;;36.10;27.10;;;;;;5052706;28;20019;-62
2022/05/20 10:42:36;;;;;;;1.75;1.13;;;35.90;27.20;;;;;;5052380;28;20021;-62
2022/05/20 10:48:56;;;;;;;4.93;1.35;;;35.00;24.90;;;;;;4959978;28;20627;-62
2022/05/20 10:51:33;;;;;;;1.67;1.10;;;34.40;25.60;;;;;;4967631;28;20019;-62
2022/05/20 10:54:06;;;;;;;1.13;0.90;;;33.90;25.40;;;;;;5055826;28;20124;-62
2022/05/20 10:56:43;;;;;;;1.50;0.90;;;33.60;25.10;;;;;;5067813;28;20021;-62
2022/05/20 10:59:21;;;;;;;2.72;1.00;;;33.30;25.60;;;;;;5049884;28;20127;-62
2022/05/20 11:01:47;;;;;;;1.33;0.90;;;33.10;27.60;;;;;;5070344;28;20028;-62
2022/05/20 11:04:25;;;;;;;1.20;0.90;;;33.00;26.80;;;;;;5071015;28;20387;-62
2022/05/20 11:07:09;;;;;;;1.75;1.23;;;33.00;27.50;;;;;;5069584;28;20095;-62
2022/05/20 11:10:02;;;;;;;1.35;1.02;;;33.20;27.20;;;;;;5069270;28;20051;-63
2022/05/20 11:12:42;;;;;;;1.30;1.20;;;33.40;27.10;;;;;;5058085;28;20111;-63
2022/05/20 11:15:17;;;;;;;1.05;0.90;;;33.70;27.00;;;;;;5071762;28;20037;-62
2022/05/20 11:17:58;;;;;;;1.60;0.80;;;34.40;29.80;;;;;;5058220;28;20021;-63
2022/05/20 11:20:36;;;;;;;1.38;1.23;;;35.00;29.30;;;;;;5055278;28;20067;-63
2022/05/20 11:23:14;;;;;;;1.33;1.20;;;35.50;28.00;;;;;;5053360;28;20029;-63
2022/05/20 11:26:10;;;;;;;1.27;0.98;;;36.00;28.40;;;;;;5062543;28;20034;-63
2022/05/20 11:28:39;;;;;;;1.05;0.82;;;36.20;26.70;;;;;;5072438;28;20027;-63
2022/05/20 11:31:16;;;;;;;1.10;1.00;;;36.30;26.80;;;;;;5070678;28;20031;-63
2022/05/20 11:33:50;;;;;;;1.95;0.90;;;36.00;27.50;;;;;;5073200;28;20024;-63
2022/05/20 11:36:35;;;;;;;1.20;1.10;;;35.70;27.70;;;;;;5073048;28;20028;-63
2022/05/20 11:39:19;;;;;;;1.30;1.13;;;36.10;27.80;;;;;;5072034;28;20021;-63
2022/05/20 11:42:03;;;;;;;3.33;1.25;;;36.60;27.70;;;;;;5071615;28;20023;-63
2022/05/20 11:44:50;;;;;;;2.38;1.20;;;36.80;27.40;;;;;;5071098;28;20028;-63
2022/05/20 11:47:55;;;;;;;1.75;1.10;;;36.90;26.70;;;;;;5071835;28;20111;-63
2022/05/20 11:50:24;;;;;;;1.10;1.00;;;36.90;27.80;;;;;;5038286;28;20067;-63
2022/05/20 11:53:13;;;;;;;0.80;0.80;;;36.90;28.60;;;;;;5072171;28;20033;-63
2022/05/20 11:55:46;;;;;;;1.48;1.00;;;37.10;26.80;;;;;;5073084;28;20123;-63
2022/05/20 11:58:26;;;;;;;2.33;1.15;;;37.20;27.50;;;;;;5072819;28;20060;-63
2022/05/20 12:00:53;;;;;;;1.15;0.82;;;36.80;25.40;;;;;;5077349;28;20027;-63
2022/05/20 12:03:25;;;;;;;1.10;0.90;;;36.40;27.40;;;;;;5077055;28;20527;-63
2022/05/20 12:05:51;;;;;;;1.15;0.90;;;36.10;27.70;;;;;;5077414;28;20025;-63
2022/05/20 12:08:44;;;;;;;1.10;0.90;;;36.20;26.90;;;;;;5077218;28;20467;-63
2022/05/20 12:11:28;;;;;;;0.88;0.75;;;36.40;28.40;;;;;;5077046;28;20025;-63
2022/05/20 12:14:16;;;;;;;3.15;0.90;;;36.80;27.30;;;;;;5076663;28;20052;-63
2022/05/20 12:17:05;;;;;;;0.80;0.77;;;36.20;26.30;;;;;;5076864;28;20086;-62
2022/05/20 12:25:39;;;;;;;0.93;0.93;;;36.80;26.90;;;;;;5076885;28;20493;-62
2022/05/20 12:28:06;;;;;;;0.75;0.73;;;37.00;28.10;;;;;;5076698;28;20055;-62
2022/05/20 12:30:43;;;;;;;1.30;0.75;;;37.40;27.60;;;;;;5076048;28;20516;-62
2022/05/20 12:33:26;;;;;;;1.00;0.90;;;37.30;27.70;;;;;;5076795;28;20020;-63
2022/05/20 12:36:20;;;;;;;1.17;1.08;;;37.20;26.10;;;;;;5076853;28;20067;-62
2022/05/20 12:38:47;;;;;;;0.90;0.80;;;37.20;26.60;;;;;;5039847;28;20112;-62
2022/05/20 12:41:33;;;;;;;1.10;1.00;;;37.30;28.90;;;;;;5076571;28;20065;-63
2022/05/20 12:44:21;;;;;;;2.17;1.15;;;37.50;28.60;;;;;;5076286;28;20489;-63
2022/05/20 12:47:04;;;;;;;1.85;1.10;;;37.50;26.20;;;;;;5076420;28;20394;-62
2022/05/20 12:49:33;;;;;;;1.15;1.00;;;37.00;27.20;;;;;;5076220;28;20025;-62
2022/05/20 12:52:34;;;;;;;1.90;1.30;;;37.20;28.10;;;;;;5074981;28;20017;-63
2022/05/20 12:55:12;;;;;;;1.48;1.10;;;37.30;27.40;;;;;;5062833;28;20079;-63
2022/05/20 12:57:53;;;;;;;1.10;1.00;;;37.40;27.30;;;;;;5076045;28;20036;-62
2022/05/20 13:00:26;;;;;;;1.33;1.13;;;37.40;27.30;;;;;;5075982;28;20029;-62
2022/05/20 13:03:09;;;;;;;2.78;1.40;;;37.60;27.70;;;;;;5074508;28;20028;-62
2022/05/20 13:06:09;;;;;;;2.17;1.20;;;37.40;28.80;;;;;;5074395;28;20506;-62
2022/05/20 13:08:51;;;;;;;2.78;1.30;;;37.40;27.40;;;;;;5075282;28;20023;-63
2022/05/20 13:11:18;;;;;;;;;;;37.30;28.10;;;;;;5075214;28;20024;-62
2022/05/20 13:13:45;;;;;;;2.03;1.10;;;37.30;29.70;;;;;;5075162;28;19904;-62
2022/05/20 13:16:14;;;;;;;1.63;1.00;;;37.60;28.90;;;;;;5075257;28;20017;-63
2022/05/20 13:18:44;;;;;;;1.25;1.00;;;37.80;28.60;;;;;;5075815;28;20050;-62
2022/05/20 13:21:18;;;;;;;1.65;1.00;;;37.90;29.50;;;;;;5075704;28;20108;-63
2022/05/20 13:23:50;;;;;;;2.65;1.20;;;38.20;28.50;;;;;;5075786;28;20036;-63
2022/05/20 13:26:31;;;;;;;3.38;1.25;;;38.20;28.30;;;;;;5075480;28;20058;-63
2022/05/20 13:29:11;;;;;;;1.63;1.20;;;38.20;27.90;;;;;;5075640;28;20089;-62
2022/05/20 13:31:38;;;;;;;2.13;1.20;;;38.30;27.90;;;;;;5075623;28;20451;-62
2022/05/20 13:34:04;;;;;;;1.85;1.10;;;38.30;28.40;;;;;;5075393;28;20032;-63
2022/05/20 13:36:51;;;;;;;1.17;1.10;;;38.40;28.20;;;;;;5075462;28;20535;-63
2022/05/20 13:39:22;;;;;;;1.50;0.95;;;38.00;27.20;;;;;;5075234;28;20051;-63
2022/05/20 13:41:49;;;;;;;1.30;1.08;;;37.70;27.90;;;;;;5075474;28;20100;-62
2022/05/20 13:44:19;;;;;;;1.33;0.95;;;37.80;29.60;;;;;;5073941;28;20074;-64
2022/05/20 13:49:35;;;;;;;3.58;1.00;;;38.10;28.90;;;;;;5055546;28;20063;-63
2022/05/20 13:52:10;;;;;;;1.33;1.02;;;38.20;27.90;;;;;;5054716;28;20053;-63